Las Cruces, NM

8:56 AM MDT on June 29, 2017 (GMT -0600)
Las Cruces International

Weather History for KLRU - November, 2013

Change the Weather History Date:

Saturday, November 2, 2013

  Actual Average Record
Temperature  
Mean Temperature 51 °F -  
Max Temperature 69 °F 66 °F 80 °F (2005)
Min Temperature 33 °F 43 °F 33 °F (2013)
Degree Days  
Heating Degree Days 14    
Growing Degree Days 1 (Base 50)    
Moisture  
Dew Point 19 °F    
Average Humidity 29    
Maximum Humidity 54    
Minimum Humidity 14    
Precipitation  
Precipitation 0.00 in - - ()
Sea Level Pressure  
Sea Level Pressure 30.22 in    
Wind  
Wind Speed 5 mph (ESE)    
Max Wind Speed 16 mph    
Max Gust Speed 20 mph    
Visibility 10 miles    
Events      
Averages and records for this station are not official NWS values.
T = Trace of Precipitation, MM = Missing Value Source: NWS Daily Summary

Daily Weather History Graph

Daily Weather History Graph

Search for Another Location

Airport or City:

Trip Planner

Search our weather history database for the weather conditions in past years. The results will help you decide how hot, cold, wet, or windy it might be!

Date:

Astronomy

Nov. 02, 2013 Rise Set
Actual Time 7:25 AM MDT 6:16 PM MDT
Civil Twilight 7:00 AM MDT 6:41 PM MDT
Nautical Twilight 6:31 AM MDT 7:10 PM MDT
Astronomical Twilight 6:02 AM MDT 7:39 PM MDT
Moon 6:28 AM MDT (11/2) 5:48 PM MDT (11/2)
Length of Visible Light 11h 41m
Length of Day
10h 50m
Waning Crescent, 1% of the Moon is Illuminated
Nov 2
Waning Crescent
Nov 3
New
Nov 9
First Quarter
Nov 17
Full
Nov 25
Last Quarter

Hourly Weather History & Observations

Time (MDT) Temp. Windchill Dew Point Humidity Pressure Visibility Wind Dir Wind Speed Gust Speed Precip Events Conditions
12:15 AM 40.8 °F - 17.4 °F 39% 30.26 in 10.0 mi Calm Calm - N/A   Clear
12:35 AM 38.3 °F - 16.7 °F 42% 30.25 in 10.0 mi Calm Calm - N/A   Clear
12:55 AM 38.3 °F 34.8 °F 16.0 °F 40% 30.25 in 10.0 mi NW 4.6 mph - N/A   Clear
1:15 AM 40.1 °F 34.7 °F 16.7 °F 39% 30.25 in 10.0 mi NNW 8.1 mph - N/A   Clear
1:35 AM 42.3 °F 36.8 °F 17.1 °F 36% 30.25 in 10.0 mi NNW 9.2 mph - N/A   Clear
1:55 AM 42.6 °F 37.8 °F 17.2 °F 36% 30.25 in 10.0 mi North 8.1 mph - N/A   Clear
2:15 AM 41.5 °F 36.4 °F 17.2 °F 38% 30.25 in 10.0 mi NNW 8.1 mph - N/A   Clear
2:35 AM 40.3 °F 36.3 °F 17.6 °F 40% 30.26 in 10.0 mi NW 5.8 mph - N/A   Clear
2:55 AM 38.7 °F 33.6 °F 17.8 °F 43% 30.25 in 10.0 mi NNW 6.9 mph - N/A   Clear
3:15 AM 42.1 °F - 18.0 °F 38% 30.26 in 10.0 mi Calm Calm - N/A   Clear
3:35 AM 41.2 °F - 18.3 °F 40% 30.26 in 10.0 mi Calm Calm - N/A   Clear
3:55 AM 39.2 °F - 18.1 °F 43% 30.25 in 10.0 mi Calm Calm - N/A   Clear
4:15 AM 42.4 °F 40.7 °F 18.7 °F 39% 30.26 in 10.0 mi NW 3.5 mph - N/A   Clear
4:35 AM 38.5 °F 36.1 °F 18.7 °F 45% 30.26 in 10.0 mi NNW 3.5 mph - N/A   Clear
4:55 AM 35.8 °F - 18.1 °F 49% 30.26 in 10.0 mi Calm Calm - N/A   Clear
5:15 AM 34.3 °F - 18.1 °F 52% 30.26 in 10.0 mi Calm Calm - N/A   Clear
5:35 AM 35.2 °F - 17.6 °F 49% 30.27 in 10.0 mi Calm Calm - N/A   Clear
5:55 AM 36.9 °F 34.3 °F 18.0 °F 46% 30.27 in 10.0 mi North 3.5 mph - N/A   Clear
6:15 AM 37.4 °F - 18.1 °F 46% 30.28 in 10.0 mi Calm Calm - N/A   Clear
6:35 AM 41.0 °F - 18.1 °F 40% 30.28 in 10.0 mi Calm Calm - N/A   Clear
6:55 AM 35.4 °F 32.6 °F 18.3 °F 50% 30.29 in 10.0 mi NNW 3.5 mph - N/A   Clear
7:15 AM 33.3 °F 27.1 °F 18.3 °F 54% 30.29 in 10.0 mi NNW 6.9 mph - N/A   Clear
7:35 AM 36.7 °F 34.1 °F 20.3 °F 52% 30.30 in 10.0 mi NNW 3.5 mph - N/A   Clear
7:55 AM 40.1 °F - 21.0 °F 47% 30.30 in 10.0 mi Calm Calm - N/A   Clear
8:15 AM 42.6 °F - 22.1 °F 44% 30.31 in 10.0 mi Calm Calm - N/A   Clear
8:35 AM 47.1 °F - 22.3 °F 38% 30.32 in 10.0 mi Calm Calm - N/A   Clear
8:55 AM 51.6 °F - 22.8 °F 32% 30.33 in 10.0 mi Calm Calm - N/A   Clear
9:15 AM 54.5 °F - 22.5 °F 29% 30.33 in 10.0 mi Calm Calm - N/A   Clear
9:35 AM 55.9 °F - 22.6 °F 28% 30.33 in 10.0 mi ENE 4.6 mph - N/A   Clear
9:55 AM 56.5 °F - 21.9 °F 26% 30.33 in 10.0 mi East 4.6 mph - N/A   Clear
11:15 AM 60.4 °F - 22.8 °F 24% 30.32 in 10.0 mi ESE 9.2 mph - N/A   Clear
11:35 AM 61.9 °F - 22.5 °F 22% 30.31 in 10.0 mi ESE 9.2 mph - N/A   Clear
11:55 AM 62.6 °F - 22.5 °F 22% 30.31 in 10.0 mi ESE 9.2 mph - N/A   Clear
12:15 PM 64.0 °F - 21.9 °F 20% 30.29 in 10.0 mi SSE 10.4 mph - N/A   Clear
12:35 PM 65.1 °F - 21.4 °F 19% 30.28 in 10.0 mi SSE 10.4 mph 18.4 mph N/A   Clear
12:55 PM 66.4 °F - 21.2 °F 18% 30.27 in 10.0 mi SE 12.7 mph 17.3 mph N/A   Clear
1:15 PM 66.9 °F - 20.1 °F 17% 30.25 in 10.0 mi SE 16.1 mph 19.6 mph N/A   Clear
1:35 PM 67.3 °F - 20.3 °F 17% 30.24 in 10.0 mi SE 11.5 mph 17.3 mph N/A   Clear
1:55 PM 67.8 °F - 19.6 °F 16% 30.23 in 10.0 mi SE 11.5 mph 17.3 mph N/A   Clear
2:15 PM 68.4 °F - 19.2 °F 15% 30.21 in 10.0 mi SSE 12.7 mph 18.4 mph N/A   Clear
2:35 PM 68.9 °F - 19.4 °F 15% 30.20 in 10.0 mi SSE 13.8 mph - N/A   Clear
2:55 PM 69.1 °F - 19.0 °F 15% 30.19 in 10.0 mi ESE 10.4 mph - N/A   Clear
3:15 PM 68.9 °F - 19.0 °F 15% 30.18 in 10.0 mi ESE 9.2 mph 16.1 mph N/A   Clear
3:35 PM 69.1 °F - 18.1 °F 14% 30.17 in 10.0 mi SSE 9.2 mph - N/A   Clear
3:55 PM 68.5 °F - 18.5 °F 15% 30.16 in 10.0 mi SSE 10.4 mph - N/A   Clear
4:15 PM 68.9 °F - 18.3 °F 15% 30.15 in 10.0 mi ESE 8.1 mph - N/A   Clear
4:35 PM 68.4 °F - 18.3 °F 15% 30.15 in 10.0 mi SE 8.1 mph - N/A   Clear
4:55 PM 68.5 °F - 18.3 °F 15% 30.14 in 10.0 mi SE 10.4 mph - N/A   Clear
5:15 PM 67.6 °F - 18.3 °F 15% 30.14 in 10.0 mi SE 6.9 mph - N/A   Clear
5:35 PM 67.1 °F - 18.1 °F 15% 30.14 in 10.0 mi SE 8.1 mph - N/A   Clear
5:55 PM 65.7 °F - 17.8 °F 16% 30.13 in 10.0 mi ESE 6.9 mph - N/A   Clear
6:15 PM 62.4 °F - 19.0 °F 19% 30.13 in 10.0 mi ESE 4.6 mph - N/A   Clear
6:35 PM 59.7 °F - 19.0 °F 21% 30.13 in 10.0 mi ESE 3.5 mph - N/A   Clear
6:55 PM 55.9 °F - 19.4 °F 24% 30.14 in 7.0 mi ESE 3.5 mph - N/A   Clear
7:15 PM 54.1 °F - 18.5 °F 25% 30.13 in 10.0 mi SE 4.6 mph - N/A   Clear
7:35 PM 55.8 °F - 19.2 °F 24% 30.13 in 10.0 mi ESE 4.6 mph - N/A   Clear
7:55 PM 57.0 °F - 19.2 °F 23% 30.13 in 10.0 mi ESE 5.8 mph - N/A   Clear
8:15 PM 56.1 °F - 19.4 °F 24% 30.13 in 10.0 mi ESE 4.6 mph - N/A   Clear
8:35 PM 55.8 °F - 19.9 °F 25% 30.12 in 10.0 mi ESE 5.8 mph - N/A   Clear
8:55 PM 55.4 °F - 19.9 °F 25% 30.13 in 10.0 mi SE 4.6 mph - N/A   Clear
9:15 PM 55.6 °F - 20.3 °F 25% 30.12 in 10.0 mi SE 6.9 mph - N/A   Clear
9:35 PM 55.9 °F - 20.3 °F 25% 30.12 in 10.0 mi SE 6.9 mph - N/A   Clear
9:55 PM 56.5 °F - 20.1 °F 24% 30.12 in 10.0 mi SE 6.9 mph - N/A   Clear
10:15 PM 55.6 °F - 19.6 °F 25% 30.12 in 10.0 mi SE 8.1 mph - N/A   Clear
10:35 PM 54.9 °F - 19.0 °F 25% 30.12 in 10.0 mi SE 4.6 mph - N/A   Clear
10:55 PM 54.5 °F - 18.9 °F 25% 30.11 in 10.0 mi SE 6.9 mph - N/A   Clear
11:15 PM 54.5 °F - 18.5 °F 24% 30.10 in 10.0 mi SE 6.9 mph - N/A   Clear
11:35 PM 52.7 °F - 18.5 °F 26% 30.10 in 10.0 mi SE 5.8 mph - N/A   Clear
11:55 PM 52.3 °F - 18.5 °F 26% 30.09 in 10.0 mi SE 5.8 mph - N/A   Clear